Time;durP1;ratioP1;P1;durP2;ratioP2;P2;SDS_P1;SDS_P2;PMS_P1;PMS_P2;Temp;Humidity;BMP_temperature;BMP_pressure;BME280_temperature;BME280_humidity;BME280_pressure;Samples;Min_cycle;Max_cycle;Signal;HPM_P1;HPM_P2
2024/04/05 00:00:29;;;;;;;35.38;5.30;;;;;;;13.92;100.00;100969.66;5277029;28;20024;-75
2024/04/05 00:02:59;;;;;;;28.80;5.10;;;;;;;13.92;100.00;100953.47;5266957;28;20384;-76
2024/04/05 00:05:30;;;;;;;27.50;4.20;;;;;;;13.85;100.00;100960.59;5276876;28;20027;-75
2024/04/05 00:08:01;;;;;;;29.20;4.57;;;;;;;13.76;100.00;100954.47;5269726;28;20025;-75
2024/04/05 00:10:31;;;;;;;29.58;5.20;;;;;;;13.67;100.00;100952.88;5267789;28;20035;-75
2024/04/05 00:13:01;;;;;;;40.70;5.72;;;;;;;13.64;100.00;100970.25;5275706;28;20024;-76
2024/04/05 00:15:38;;;;;;;26.05;6.10;;;;;;;13.64;100.00;100958.63;5280232;28;20026;-75
2024/04/05 00:18:08;;;;;;;35.88;5.82;;;;;;;13.62;100.00;100972.31;5272194;28;20427;-76
2024/04/05 00:20:39;;;;;;;24.15;5.10;;;;;;;13.59;100.00;100974.50;5275752;28;20023;-76
2024/04/05 00:23:09;;;;;;;34.25;4.93;;;;;;;13.55;100.00;100971.34;5266128;28;20019;-75
2024/04/05 00:25:41;;;;;;;17.40;3.90;;;;;;;13.52;100.00;100963.63;5266004;28;20024;-75
2024/04/05 00:28:11;;;;;;;32.40;5.70;;;;;;;13.52;100.00;100979.81;5265202;28;20027;-75
2024/04/05 00:30:42;;;;;;;28.15;5.80;;;;;;;13.50;100.00;100989.91;5265726;28;20032;-76
2024/04/05 00:33:12;;;;;;;32.97;5.70;;;;;;;13.43;100.00;100973.66;5266994;28;20496;-76
2024/04/05 00:35:51;;;;;;;29.25;5.50;;;;;;;13.39;100.00;100974.19;5265259;28;20026;-76
2024/04/05 00:38:23;;;;;;;33.88;5.40;;;;;;;13.42;100.00;100965.75;5258624;28;20428;-76
2024/04/05 00:40:55;;;;;;;30.73;4.82;;;;;;;13.45;100.00;100963.53;5265752;28;20028;-76
2024/04/05 00:43:25;;;;;;;27.27;5.18;;;;;;;13.45;100.00;100965.38;5270379;28;20023;-76
2024/04/05 00:45:56;;;;;;;33.70;6.18;;;;;;;13.44;100.00;100964.53;5267684;28;20028;-75
2024/04/05 00:48:27;;;;;;;26.65;4.30;;;;;;;13.39;100.00;100969.63;5276972;28;20057;-76
2024/04/05 00:50:57;;;;;;;31.65;5.18;;;;;;;13.33;100.00;100973.06;5266332;28;20431;-76
2024/04/05 00:53:31;;;;;;;26.88;4.93;;;;;;;13.24;100.00;100971.44;5267337;28;20031;-76
2024/04/05 00:56:03;;;;;;;32.17;5.50;;;;;;;13.19;100.00;100966.56;5264726;28;20020;-75
2024/04/05 00:58:33;;;;;;;24.88;5.22;;;;;;;13.17;100.00;100971.31;5270344;28;20098;-75
2024/04/05 01:01:05;;;;;;;25.50;5.00;;;;;;;13.12;100.00;100965.63;5273361;28;20027;-75
2024/04/05 01:03:35;;;;;;;30.02;5.45;;;;;;;13.06;100.00;100963.66;5266270;28;20020;-76
2024/04/05 01:06:06;;;;;;;24.33;4.75;;;;;;;13.00;100.00;100963.50;5265566;28;20024;-75
2024/04/05 01:08:38;;;;;;;26.92;4.80;;;;;;;13.01;100.00;100971.44;5264963;28;20088;-76
2024/04/05 01:11:08;;;;;;;37.60;5.30;;;;;;;13.03;100.00;100965.84;5264716;28;20049;-75
2024/04/05 01:13:39;;;;;;;34.55;5.90;;;;;;;13.00;100.00;100961.66;5279515;28;20477;-76
2024/04/05 01:16:10;;;;;;;24.13;5.45;;;;;;;13.05;100.00;100958.44;5265941;28;20047;-75
2024/04/05 01:18:42;;;;;;;28.20;5.18;;;;;;;13.08;100.00;100958.91;5265249;28;20028;-76
2024/04/05 01:21:13;;;;;;;30.65;5.53;;;;;;;13.08;100.00;100950.81;5267805;28;20016;-76
2024/04/05 01:23:44;;;;;;;33.17;5.13;;;;;;;13.07;100.00;100938.38;5270252;28;20508;-76
2024/04/05 01:26:14;;;;;;;21.80;4.60;;;;;;;13.08;100.00;100941.91;5265526;28;20024;-76
2024/04/05 01:28:45;;;;;;;35.97;5.43;;;;;;;13.06;100.00;100943.97;5266735;28;20020;-76
2024/04/05 01:31:15;;;;;;;40.17;5.90;;;;;;;13.08;100.00;100945.44;5271201;28;20031;-76
2024/04/05 01:33:46;;;;;;;28.80;4.93;;;;;;;13.08;100.00;100950.00;5263044;28;20157;-75
2024/04/05 01:36:16;;;;;;;31.27;5.10;;;;;;;13.08;100.00;100950.81;5264815;28;20028;-75
2024/04/05 01:38:47;;;;;;;16.95;4.18;;;;;;;13.16;100.00;100952.63;5266643;28;20024;-75
2024/04/05 01:41:19;;;;;;;26.38;5.25;;;;;;;13.27;100.00;100948.72;5269862;28;20027;-76
2024/04/05 01:43:50;;;;;;;25.55;4.82;;;;;;;13.44;100.00;100952.91;5267801;28;20035;-76
2024/04/05 01:46:20;;;;;;;27.98;5.35;;;;;;;13.52;100.00;100952.84;5271627;28;20027;-76
2024/04/05 01:48:52;;;;;;;29.15;4.55;;;;;;;13.58;100.00;100956.69;5275410;28;20405;-75
2024/04/05 01:51:22;;;;;;;23.60;4.85;;;;;;;13.62;100.00;100958.81;5274091;28;20032;-76
2024/04/05 01:53:53;;;;;;;19.45;3.83;;;;;;;13.64;100.00;100959.47;5273142;28;20035;-75
2024/04/05 01:56:23;;;;;;;15.98;3.80;;;;;;;13.65;100.00;100960.31;5279273;28;20546;-75
2024/04/05 01:58:54;;;;;;;34.13;5.32;;;;;;;13.68;100.00;100971.56;5273081;28;20012;-76
2024/04/05 02:01:25;;;;;;;28.17;4.28;;;;;;;13.72;100.00;100969.34;5269809;28;20024;-76
2024/04/05 02:03:56;;;;;;;24.45;3.80;;;;;;;13.74;100.00;100969.97;5270752;28;20036;-75
2024/04/05 02:06:27;;;;;;;23.42;4.50;;;;;;;13.76;100.00;100965.25;5275235;28;20023;-76
2024/04/05 02:08:58;;;;;;;28.35;4.10;;;;;;;13.85;100.00;100964.13;5275282;28;20031;-76
2024/04/05 02:11:28;;;;;;;25.00;5.20;;;;;;;13.96;100.00;100952.91;5276097;28;20070;-75
2024/04/05 02:13:59;;;;;;;19.02;4.30;;;;;;;14.07;100.00;100948.91;5277024;28;20405;-75
2024/04/05 02:16:37;;;;;;;19.15;4.10;;;;;;;14.21;100.00;100948.06;5274819;28;20056;-75
2024/04/05 02:19:09;;;;;;;29.52;4.78;;;;;;;14.31;100.00;100950.47;5282867;28;20058;-75
2024/04/05 02:21:39;;;;;;;22.58;4.25;;;;;;;14.43;100.00;100943.56;5273819;28;20055;-76
2024/04/05 02:24:10;;;;;;;21.45;3.88;;;;;;;14.54;100.00;100946.81;5277197;28;20523;-75
2024/04/05 02:26:44;;;;;;;21.10;3.60;;;;;;;14.61;100.00;100940.50;5275451;28;21101;-76
2024/04/05 02:29:15;;;;;;;14.57;3.58;;;;;;;14.73;100.00;100935.41;5278118;28;20027;-75
2024/04/05 02:31:46;;;;;;;13.43;3.58;;;;;;;14.83;100.00;100943.22;5273247;27;20027;-75
2024/04/05 02:34:17;;;;;;;17.38;3.08;;;;;;;14.91;100.00;100941.22;5274107;28;20034;-76
2024/04/05 02:36:50;;;;;;;19.45;3.45;;;;;;;15.00;100.00;100937.34;5271489;28;20016;-76
2024/04/05 02:39:20;;;;;;;16.35;4.25;;;;;;;15.05;100.00;100927.81;5274739;28;20032;-76
2024/04/05 02:41:51;;;;;;;16.80;3.65;;;;;;;15.18;100.00;100933.38;5276230;28;20801;-76
2024/04/05 02:44:24;;;;;;;16.00;3.30;;;;;;;15.11;100.00;100933.31;5273378;28;20035;-76
2024/04/05 02:46:55;;;;;;;17.25;3.35;;;;;;;15.09;100.00;100924.56;5270156;28;20089;-76
2024/04/05 02:49:25;;;;;;;21.55;3.30;;;;;;;15.16;100.00;100921.91;5273947;28;20461;-75
2024/04/05 02:51:56;;;;;;;14.48;3.78;;;;;;;15.19;100.00;100925.06;5272595;28;20032;-76
2024/04/05 02:54:26;;;;;;;27.30;3.88;;;;;;;15.16;100.00;100925.47;5269760;28;20024;-75
2024/04/05 02:56:57;;;;;;;25.63;5.30;;;;;;;15.19;100.00;100921.53;5269895;28;20043;-76
2024/04/05 02:59:27;;;;;;;14.80;3.58;;;;;;;15.16;100.00;100935.41;5269458;28;20110;-75
2024/04/05 03:01:58;;;;;;;21.67;4.30;;;;;;;15.22;100.00;100919.28;5277545;28;20020;-75
2024/04/05 03:04:28;;;;;;;28.13;4.40;;;;;;;15.17;100.00;100901.97;5268859;28;20689;-75
2024/04/05 03:06:59;;;;;;;19.52;3.50;;;;;;;15.17;100.00;100883.91;5270340;28;20020;-75
2024/04/05 03:09:30;;;;;;;17.10;3.65;;;;;;;15.24;100.00;100879.38;5265881;28;20028;-76
2024/04/05 03:12:02;;;;;;;22.13;3.95;;;;;;;15.17;100.00;100875.78;5277664;28;20073;-75
2024/04/05 03:14:33;;;;;;;15.98;3.38;;;;;;;15.17;100.00;100873.09;5277755;28;20044;-75
2024/04/05 03:17:03;;;;;;;19.92;3.92;;;;;;;15.14;100.00;100864.53;5268948;28;20065;-75
2024/04/05 03:19:34;;;;;;;17.65;3.50;;;;;;;15.07;100.00;100883.41;5269111;28;20405;-76
2024/04/05 03:22:04;;;;;;;20.15;4.10;;;;;;;15.07;100.00;100867.19;5277224;28;20024;-75
2024/04/05 03:24:35;;;;;;;18.58;3.92;;;;;;;15.02;100.00;100881.28;5274404;28;20023;-75
2024/04/05 03:27:06;;;;;;;14.38;3.72;;;;;;;14.95;100.00;100884.94;5275574;28;20026;-75
2024/04/05 03:29:36;;;;;;;24.98;4.00;;;;;;;14.99;100.00;100891.63;5271699;28;20036;-76
2024/04/05 03:32:08;;;;;;;17.98;4.35;;;;;;;14.94;100.00;100877.88;5270953;28;20030;-75
2024/04/05 03:34:40;;;;;;;17.40;3.92;;;;;;;14.87;100.00;100885.09;5274868;28;20111;-75
2024/04/05 03:37:11;;;;;;;19.08;3.85;;;;;;;14.88;100.00;100884.88;5270963;28;20016;-75
2024/04/05 03:39:41;;;;;;;20.83;4.03;;;;;;;14.88;100.00;100892.16;5276970;28;20366;-75
2024/04/05 03:42:12;;;;;;;22.40;4.00;;;;;;;14.89;100.00;100891.13;5270888;28;20024;-76
2024/04/05 03:44:42;;;;;;;17.73;3.70;;;;;;;14.91;100.00;100891.75;5276297;28;20020;-76
2024/04/05 03:47:13;;;;;;;16.15;3.25;;;;;;;14.90;100.00;100884.69;5269493;28;20020;-76
2024/04/05 03:49:43;;;;;;;18.40;4.35;;;;;;;14.94;100.00;100883.25;5269683;28;20032;-76
2024/04/05 03:52:14;;;;;;;17.52;3.35;;;;;;;14.91;100.00;100875.53;5271870;28;20066;-75
2024/04/05 03:54:44;;;;;;;31.77;3.63;;;;;;;15.00;100.00;100867.09;5278682;28;20393;-75
2024/04/05 03:57:15;;;;;;;22.50;3.88;;;;;;;15.01;100.00;100859.88;5268495;28;20020;-75
2024/04/05 03:59:45;;;;;;;20.00;3.83;;;;;;;15.00;100.00;100861.69;5274259;28;20073;-76
2024/04/05 04:02:16;;;;;;;20.45;3.78;;;;;;;14.95;100.00;100857.91;5270423;28;20606;-75
2024/04/05 04:04:47;;;;;;;15.68;3.42;;;;;;;14.89;100.00;100866.81;5270149;28;20092;-76
2024/04/05 04:07:18;;;;;;;22.60;4.22;;;;;;;14.94;100.00;100864.34;5269412;28;20035;-75
2024/04/05 04:09:48;;;;;;;14.80;3.28;;;;;;;14.90;100.00;100845.00;5272112;28;20028;-75
2024/04/05 04:12:19;;;;;;;19.02;4.03;;;;;;;14.90;100.00;100841.47;5272567;28;20012;-75
2024/04/05 04:14:49;;;;;;;20.13;3.83;;;;;;;14.96;100.00;100846.06;5271010;28;20027;-75
2024/04/05 04:17:20;;;;;;;24.30;4.05;;;;;;;14.97;100.00;100831.56;5276315;28;20488;-75
2024/04/05 04:19:52;;;;;;;17.60;3.25;;;;;;;14.89;100.00;100837.94;5271138;28;20024;-75
2024/04/05 04:22:22;;;;;;;17.08;3.85;;;;;;;14.84;100.00;100834.97;5269586;28;20109;-76
2024/04/05 04:24:53;;;;;;;21.10;3.95;;;;;;;14.73;100.00;100843.59;5271236;28;20489;-76
2024/04/05 04:27:23;;;;;;;24.20;4.53;;;;;;;14.83;100.00;100833.31;5272780;28;20035;-76
2024/04/05 04:29:54;;;;;;;18.33;4.25;;;;;;;14.80;100.00;100830.97;5278075;28;20024;-75
2024/04/05 04:32:25;;;;;;;17.63;3.60;;;;;;;14.75;100.00;100849.63;5278029;28;20070;-76
2024/04/05 04:34:55;;;;;;;22.98;4.38;;;;;;;14.91;100.00;100843.13;5282194;28;20034;-75
2024/04/05 04:37:26;;;;;;;23.38;3.83;;;;;;;14.89;100.00;100837.09;5273268;28;20106;-76
2024/04/05 04:39:56;;;;;;;21.10;4.35;;;;;;;14.88;100.00;100828.16;5280909;28;20453;-76
2024/04/05 04:42:27;;;;;;;23.70;4.00;;;;;;;14.92;100.00;100844.81;5273071;28;20035;-75
2024/04/05 04:44:58;;;;;;;17.17;3.47;;;;;;;14.97;100.00;100843.19;5279120;28;20035;-76
2024/04/05 04:47:29;;;;;;;15.05;3.70;;;;;;;14.99;100.00;100835.72;5278327;28;20039;-76
2024/04/05 04:49:59;;;;;;;26.40;5.25;;;;;;;14.93;100.00;100808.66;5277231;28;20369;-76
2024/04/05 04:52:30;;;;;;;17.05;3.42;;;;;;;14.93;100.00;100777.09;5274985;28;20423;-76
2024/04/05 04:55:02;;;;;;;21.83;3.45;;;;;;;14.90;100.00;100774.75;5269128;28;20024;-76
2024/04/05 04:57:33;;;;;;;21.13;4.53;;;;;;;14.86;100.00;100780.75;5268154;28;20036;-76
2024/04/05 05:00:04;;;;;;;22.52;3.60;;;;;;;14.83;100.00;100786.56;5269146;28;20125;-75
2024/04/05 05:02:35;;;;;;;14.93;3.72;;;;;;;14.73;100.00;100784.19;5280250;28;20484;-75
2024/04/05 05:05:06;;;;;;;16.00;3.05;;;;;;;14.67;100.00;100783.13;5276330;28;20042;-75
2024/04/05 05:07:36;;;;;;;13.27;3.08;;;;;;;14.72;100.00;100782.53;5273043;28;20032;-76
2024/04/05 05:10:09;;;;;;;14.13;3.05;;;;;;;14.73;100.00;100784.19;5272626;28;20035;-76
2024/04/05 05:12:40;;;;;;;16.08;3.17;;;;;;;14.69;100.00;100789.13;5275900;28;20384;-77
2024/04/05 05:15:11;;;;;;;21.15;3.35;;;;;;;14.71;100.00;100779.00;5277613;28;20027;-76
2024/04/05 05:17:42;;;;;;;24.83;3.35;;;;;;;14.79;100.00;100771.78;5270271;28;20019;-76
2024/04/05 05:20:16;;;;;;;16.95;4.00;;;;;;;14.77;100.00;100766.59;5275710;28;20396;-76
2024/04/05 05:22:46;;;;;;;17.80;3.38;;;;;;;14.77;100.00;100750.38;5276498;27;20040;-75
2024/04/05 05:25:17;;;;;;;18.33;3.90;;;;;;;14.77;100.00;100751.22;5277255;28;20553;-76
2024/04/05 05:27:48;;;;;;;14.82;3.10;;;;;;;14.71;100.00;100738.50;5264687;28;20024;-75
2024/04/05 05:30:18;;;;;;;17.15;3.05;;;;;;;14.73;100.00;100736.41;5278636;28;20027;-76
2024/04/05 05:32:51;;;;;;;20.30;3.75;;;;;;;14.77;100.00;100735.00;5280297;27;20024;-76
2024/04/05 05:35:21;;;;;;;19.25;3.35;;;;;;;14.84;100.00;100734.22;5281396;28;20044;-75
2024/04/05 05:37:52;;;;;;;18.30;3.75;;;;;;;14.91;100.00;100744.03;5279013;28;20032;-76
2024/04/05 05:40:23;;;;;;;17.52;2.90;;;;;;;14.90;100.00;100741.53;5284516;27;20586;-76
2024/04/05 05:42:53;;;;;;;13.13;3.38;;;;;;;14.86;100.00;100742.94;5277238;28;20100;-76
2024/04/05 05:45:24;;;;;;;20.45;3.58;;;;;;;14.84;100.00;100734.22;5274936;28;20470;-76
2024/04/05 05:47:56;;;;;;;18.83;3.60;;;;;;;14.91;100.00;100737.78;5275813;28;20099;-76
2024/04/05 05:50:26;;;;;;;12.57;2.97;;;;;;;14.84;100.00;100737.75;5277740;28;20476;-76
2024/04/05 05:52:57;;;;;;;11.60;2.63;;;;;;;14.90;100.00;100733.41;5281035;28;20059;-76
2024/04/05 05:55:27;;;;;;;9.10;3.10;;;;;;;14.91;100.00;100721.56;5276482;28;20027;-75
2024/04/05 05:57:59;;;;;;;16.08;3.63;;;;;;;14.98;100.00;100717.06;5277347;28;20042;-76
2024/04/05 06:00:30;;;;;;;14.63;3.22;;;;;;;15.05;100.00;100712.53;5281129;28;20016;-75
2024/04/05 06:03:00;;;;;;;11.25;2.88;;;;;;;15.09;100.00;100704.88;5275113;28;20047;-75
2024/04/05 06:05:31;;;;;;;10.63;3.53;;;;;;;15.10;100.00;100704.66;5281312;28;20534;-75
2024/04/05 06:08:02;;;;;;;20.95;3.35;;;;;;;15.10;100.00;100693.03;5276954;28;20020;-76
2024/04/05 06:10:33;;;;;;;12.68;4.47;;;;;;;15.24;100.00;100686.66;5279518;28;20020;-75
2024/04/05 06:13:04;;;;;;;13.90;3.08;;;;;;;15.16;100.00;100676.88;5260179;27;20036;-76
2024/04/05 06:15:34;;;;;;;16.80;3.03;;;;;;;15.22;100.00;100688.75;5270538;28;20020;-75
2024/04/05 06:18:05;;;;;;;10.02;3.28;;;;;;;15.15;100.00;100691.38;5273657;28;20019;-76
2024/04/05 06:20:35;;;;;;;7.32;2.20;;;;;;;15.34;100.00;100689.00;5271703;28;20027;-77
2024/04/05 06:23:06;;;;;;;8.70;2.63;;;;;;;15.42;100.00;100692.38;5276059;28;20031;-77
2024/04/05 06:25:36;;;;;;;11.48;2.97;;;;;;;15.42;100.00;100686.97;5274171;28;20501;-76
2024/04/05 06:28:07;;;;;;;12.43;2.88;;;;;;;15.44;100.00;100690.28;5272507;28;20389;-76
2024/04/05 06:30:38;;;;;;;11.38;2.92;;;;;;;15.52;100.00;100686.56;5275422;28;20027;-76
2024/04/05 06:33:09;;;;;;;12.73;2.67;;;;;;;15.54;100.00;100676.38;5278799;28;20046;-76
2024/04/05 06:35:40;;;;;;;11.73;2.28;;;;;;;15.57;100.00;100683.28;5271346;28;20036;-76
2024/04/05 06:38:11;;;;;;;10.98;2.72;;;;;;;15.52;100.00;100679.28;5272695;28;20491;-76
2024/04/05 06:40:42;;;;;;;18.67;2.75;;;;;;;15.60;100.00;100670.16;5271844;28;20027;-76
2024/04/05 06:43:12;;;;;;;11.20;2.47;;;;;;;15.46;100.00;100666.59;5275013;28;20042;-76
2024/04/05 06:45:52;;;;;;;14.43;2.97;;;;;;;15.68;100.00;100664.59;5271546;28;20031;-75
2024/04/05 06:48:23;;;;;;;9.10;2.08;;;;;;;15.65;100.00;100658.75;5272723;28;20392;-76
2024/04/05 06:50:54;;;;;;;10.63;2.70;;;;;;;15.72;100.00;100648.81;5278100;28;20026;-76
2024/04/05 06:53:24;;;;;;;12.30;2.15;;;;;;;15.72;100.00;100648.81;5274939;28;20019;-76
2024/04/05 06:55:55;;;;;;;11.68;1.85;;;;;;;15.71;100.00;100649.81;5279442;28;20024;-76
2024/04/05 06:58:26;;;;;;;15.70;2.75;;;;;;;15.74;100.00;100630.50;5271859;28;20026;-75
2024/04/05 07:01:01;;;;;;;6.53;2.03;;;;;;;15.85;100.00;100629.88;5282626;27;20040;-76
2024/04/05 07:03:32;;;;;;;6.80;2.28;;;;;;;15.80;100.00;100621.56;5273159;28;20419;-76
2024/04/05 07:06:03;;;;;;;9.73;1.65;;;;;;;15.83;100.00;100613.03;5277927;28;20027;-76
2024/04/05 07:08:35;;;;;;;8.18;1.90;;;;;;;15.88;100.00;100615.13;5274468;27;20051;-75
2024/04/05 07:11:08;;;;;;;6.22;1.80;;;;;;;15.88;100.00;100609.72;5271212;28;20059;-76
2024/04/05 07:13:38;;;;;;;6.03;2.00;;;;;;;15.86;100.00;100600.97;5275117;28;20027;-77
2024/04/05 07:16:11;;;;;;;6.32;1.75;;;;;;;16.05;100.00;100587.44;5275948;28;20492;-77
2024/04/05 07:18:42;;;;;;;12.23;2.72;;;;;;;16.02;100.00;100576.22;5275400;28;20096;-74
2024/04/05 07:21:13;;;;;;;8.23;1.70;;;;;;;16.20;100.00;100578.28;5270542;27;20162;-77
2024/04/05 07:23:43;;;;;;;6.60;1.73;;;;;;;16.19;100.00;100577.44;5275642;28;20024;-74
2024/04/05 07:26:14;;;;;;;6.82;1.40;;;;;;;16.28;100.00;100576.19;5277867;28;20032;-74
2024/04/05 07:28:44;;;;;;;9.68;2.20;;;;;;;16.46;100.00;100562.00;5273836;28;20032;-74
2024/04/05 07:31:15;;;;;;;5.50;1.73;;;;;;;16.57;100.00;100565.94;5275766;28;20104;-76
2024/04/05 07:33:45;;;;;;;6.72;1.80;;;;;;;16.62;100.00;100549.03;5281338;28;20582;-74
2024/04/05 07:36:17;;;;;;;7.75;1.70;;;;;;;16.58;100.00;100551.34;5271658;28;20024;-74
2024/04/05 07:38:49;;;;;;;10.95;1.67;;;;;;;16.63;100.00;100543.44;5273872;28;20474;-74
2024/04/05 07:41:20;;;;;;;9.02;1.92;;;;;;;16.93;100.00;100548.34;5279983;28;20437;-74
2024/04/05 07:43:50;;;;;;;6.07;1.42;;;;;;;16.90;100.00;100557.72;5271507;28;20038;-74
2024/04/05 07:46:21;;;;;;;4.03;1.35;;;;;;;16.95;100.00;100540.81;5275396;28;20501;-74
2024/04/05 07:48:51;;;;;;;8.45;1.58;;;;;;;16.82;100.00;100542.56;5276591;28;20027;-75
2024/04/05 07:51:22;;;;;;;3.90;1.50;;;;;;;16.86;100.00;100533.97;5276163;28;20023;-74
2024/04/05 07:53:52;;;;;;;4.65;1.15;;;;;;;16.85;100.00;100551.28;5269195;28;20028;-74
2024/04/05 07:56:23;;;;;;;9.20;1.55;;;;;;;16.87;100.00;100546.47;5278284;28;20016;-74
2024/04/05 07:58:54;;;;;;;8.93;1.50;;;;;;;16.99;100.00;100548.31;5275713;28;20106;-75
2024/04/05 08:01:25;;;;;;;4.72;1.50;;;;;;;16.92;100.00;100554.78;5275776;27;20072;-74
2024/04/05 08:03:56;;;;;;;6.60;2.38;;;;;;;17.09;100.00;100556.81;5274340;28;20056;-74
2024/04/05 08:06:26;;;;;;;11.75;1.77;;;;;;;17.30;100.00;100580.06;5276564;28;20031;-74
2024/04/05 08:08:57;;;;;;;9.43;1.90;;;;;;;17.29;100.00;100600.09;5274013;28;20080;-74
2024/04/05 08:11:27;;;;;;;8.02;1.50;;;;;;;17.31;100.00;100608.00;5271866;28;20397;-74
2024/04/05 08:13:58;;;;;;;6.03;1.63;;;;;;;17.12;100.00;100628.75;5276262;28;20032;-78
2024/04/05 08:16:28;;;;;;;6.20;1.15;;;;;;;16.86;100.00;100615.25;5265604;28;20024;-77
2024/04/05 08:19:01;;;;;;;5.20;1.20;;;;;;;17.00;100.00;100636.69;5274424;28;20438;-75
2024/04/05 08:21:32;;;;;;;3.20;1.10;;;;;;;17.00;100.00;100625.84;5279765;28;20096;-76
2024/04/05 08:24:03;;;;;;;7.43;1.42;;;;;;;17.11;100.00;100612.66;5273754;28;20055;-77
2024/04/05 08:26:34;;;;;;;5.55;1.02;;;;;;;17.18;100.00;100643.31;5270203;28;20055;-75
2024/04/05 08:29:04;;;;;;;6.22;1.25;;;;;;;17.34;100.00;100632.81;5266875;28;20016;-78
2024/04/05 08:31:35;;;;;;;5.80;1.20;;;;;;;17.45;100.00;100641.31;5273930;28;20039;-76
2024/04/05 08:34:05;;;;;;;5.45;1.08;;;;;;;17.51;100.00;100643.16;5266726;28;20401;-75
2024/04/05 08:36:36;;;;;;;4.95;1.52;;;;;;;17.60;100.00;100648.09;5264725;28;20107;-78
2024/04/05 08:39:06;;;;;;;3.95;1.10;;;;;;;17.53;100.00;100635.63;5270736;28;20024;-76
2024/04/05 08:41:39;;;;;;;4.40;1.05;;;;;;;17.55;100.00;100628.09;5274322;28;20059;-75
2024/04/05 08:44:12;;;;;;;7.20;1.20;;;;;;;17.56;100.00;100638.72;5274500;28;20107;-75
2024/04/05 08:46:46;;;;;;;4.80;1.20;;;;;;;17.57;100.00;100658.53;5260685;28;20152;-75
2024/04/05 08:49:22;;;;;;;4.00;1.10;;;;;;;17.56;100.00;100673.16;5277732;28;20027;-75
2024/04/05 08:51:53;;;;;;;5.22;1.15;;;;;;;17.69;100.00;100673.09;5269946;28;20031;-77
2024/04/05 08:54:23;;;;;;;5.82;1.95;;;;;;;17.69;100.00;100680.41;5274763;28;20035;-76
2024/04/05 08:56:55;;;;;;;4.20;1.30;;;;;;;17.73;100.00;100684.41;5267130;28;20024;-76
2024/04/05 08:59:28;;;;;;;3.72;1.30;;;;;;;17.75;100.00;100691.25;5263926;28;20032;-76
2024/04/05 09:02:00;;;;;;;9.65;1.83;;;;;;;17.83;100.00;100688.28;5273839;28;20038;-77
2024/04/05 09:04:31;;;;;;;8.45;1.38;;;;;;;17.93;100.00;100673.41;5269428;28;20106;-77
2024/04/05 09:07:02;;;;;;;7.28;1.60;;;;;;;17.95;100.00;100672.13;5272050;28;20076;-75
2024/04/05 09:09:34;;;;;;;3.92;1.30;;;;;;;17.99;100.00;100656.25;5268994;28;20023;-75
2024/04/05 09:12:09;;;;;;;4.78;1.25;;;;;;;17.93;100.00;100640.84;5265520;28;20031;-77
2024/04/05 09:14:41;;;;;;;;;;;;;;;18.04;100.00;100632.81;5269568;28;20016;-75
2024/04/05 09:17:16;;;;;;;4.65;1.35;;;;;;;18.08;100.00;100639.47;5250023;28;19911;-76
2024/04/05 09:19:47;;;;;;;5.53;1.10;;;;;;;17.97;100.00;100645.63;5274310;28;20068;-77
2024/04/05 09:22:19;;;;;;;6.95;1.35;;;;;;;18.04;100.00;100643.69;5272243;28;20505;-75
2024/04/05 09:25:03;;;;;;;5.28;1.17;;;;;;;18.02;100.00;100618.66;5273664;28;20381;-78
2024/04/05 09:27:33;;;;;;;5.50;1.42;;;;;;;18.10;100.00;100625.69;5274146;28;20085;-77
2024/04/05 09:30:05;;;;;;;6.22;1.30;;;;;;;18.22;100.00;100613.03;5266552;28;20016;-76
2024/04/05 09:32:37;;;;;;;4.60;1.35;;;;;;;18.34;100.00;100618.59;5275298;28;20401;-75
2024/04/05 09:35:09;;;;;;;3.45;1.08;;;;;;;18.45;100.00;100636.03;5269240;28;20028;-76
2024/04/05 09:37:40;;;;;;;6.45;1.55;;;;;;;18.46;100.00;100638.53;5269253;28;20034;-77
2024/04/05 09:40:11;;;;;;;4.03;1.13;;;;;;;18.55;100.00;100644.50;5273408;28;20577;-76
2024/04/05 09:42:43;;;;;;;5.78;1.10;;;;;;;18.53;100.00;100636.59;5271668;28;20461;-75
2024/04/05 09:45:14;;;;;;;3.13;1.13;;;;;;;18.62;100.00;100627.09;5272765;28;20889;-75
2024/04/05 09:47:46;;;;;;;6.97;1.45;;;;;;;18.60;100.00;100625.66;5270730;28;20028;-74
2024/04/05 09:50:17;;;;;;;11.52;2.00;;;;;;;18.69;100.00;100637.91;5273737;28;20020;-74
2024/04/05 09:52:51;;;;;;;4.22;1.08;;;;;;;18.68;100.00;100640.84;5271682;28;20020;-74
2024/04/05 09:55:24;;;;;;;5.55;1.80;;;;;;;18.80;100.00;100645.31;5265856;28;20027;-76
2024/04/05 09:57:55;;;;;;;5.57;1.48;;;;;;;18.65;100.00;100650.25;5268368;28;20393;-75
2024/04/05 10:00:27;;;;;;;8.43;1.67;;;;;;;18.71;100.00;100649.38;5273326;28;20197;-75
2024/04/05 10:02:59;;;;;;;6.55;1.30;;;;;;;18.76;100.00;100652.25;5273687;28;20020;-75
2024/04/05 10:05:32;;;;;;;2.58;0.98;;;;;;;18.80;100.00;100658.09;5274222;28;20027;-74
2024/04/05 10:08:12;;;;;;;8.25;1.65;;;;;;;18.83;100.00;100658.47;5271396;28;20162;-75
2024/04/05 10:10:44;;;;;;;8.85;1.33;;;;;;;18.83;100.00;100668.53;5271901;28;20500;-75
2024/04/05 10:13:23;;;;;;;2.15;1.17;;;;;;;18.80;100.00;100658.91;5274808;28;20034;-75
2024/04/05 10:15:56;;;;;;;5.05;1.58;;;;;;;18.85;100.00;100664.50;5267700;28;20026;-75
2024/04/05 10:18:29;;;;;;;5.85;1.33;;;;;;;18.83;100.00;100654.94;5275022;28;20016;-76
2024/04/05 10:21:02;;;;;;;3.92;1.38;;;;;;;18.75;100.00;100653.31;5275393;28;20020;-75
2024/04/05 10:23:34;;;;;;;3.90;1.45;;;;;;;18.69;100.00;100658.84;5281177;28;20090;-75
2024/04/05 10:26:13;;;;;;;5.93;1.40;;;;;;;18.82;100.00;100655.97;5270552;28;20024;-75
2024/04/05 10:28:44;;;;;;;6.15;1.25;;;;;;;18.69;100.00;100654.22;5270262;28;20467;-75
2024/04/05 10:31:15;;;;;;;5.30;1.50;;;;;;;18.72;100.00;100652.94;5274434;28;20123;-74
2024/04/05 10:33:46;;;;;;;5.45;1.27;;;;;;;18.81;100.00;100652.41;5271805;27;20095;-73
2024/04/05 10:36:16;;;;;;;5.45;1.38;;;;;;;18.65;100.00;100647.53;5276641;28;20490;-74
2024/04/05 10:38:48;;;;;;;5.05;0.98;;;;;;;18.69;100.00;100651.50;5276296;28;20019;-74
2024/04/05 10:41:19;;;;;;;2.85;1.10;;;;;;;18.66;100.00;100656.53;5260545;28;20024;-74
2024/04/05 10:44:02;;;;;;;5.10;1.55;;;;;;;18.72;100.00;100661.91;5272145;28;20024;-73
2024/04/05 10:46:33;;;;;;;9.52;1.40;;;;;;;18.77;100.00;100663.97;5252883;28;20030;-73
2024/04/05 10:49:04;;;;;;;4.72;1.30;;;;;;;18.78;100.00;100665.66;5277234;28;20110;-73
2024/04/05 10:51:34;;;;;;;4.90;1.25;;;;;;;18.80;100.00;100664.34;5271673;28;20068;-75
2024/04/05 10:54:11;;;;;;;3.22;1.00;;;;;;;18.97;100.00;100669.19;5276299;28;20023;-75
2024/04/05 10:56:44;;;;;;;4.22;1.55;;;;;;;19.11;100.00;100649.78;5271825;28;20012;-74
2024/04/05 10:59:18;;;;;;;5.57;1.27;;;;;;;19.07;100.00;100672.22;5268221;27;20415;-74
2024/04/05 11:01:49;;;;;;;5.45;1.25;;;;;;;18.98;100.00;100668.97;5272918;28;20043;-76
2024/04/05 11:04:24;;;;;;;6.78;1.23;;;;;;;18.88;100.00;100664.06;5273368;28;20020;-74
2024/04/05 11:07:00;;;;;;;3.08;1.30;;;;;;;18.75;100.00;100683.22;5271626;28;20012;-74
2024/04/05 11:09:33;;;;;;;6.25;2.00;;;;;;;18.62;100.00;100710.47;5276040;28;20024;-74
2024/04/05 11:12:04;;;;;;;14.82;2.22;;;;;;;18.45;100.00;100717.53;5275413;28;20026;-75
2024/04/05 11:14:35;;;;;;;7.32;1.20;;;;;;;18.33;100.00;100717.41;5271785;27;20028;-74
2024/04/05 11:17:05;;;;;;;7.85;1.30;;;;;;;18.28;100.00;100714.53;5271808;28;20016;-75
2024/04/05 11:19:36;;;;;;;3.25;1.40;;;;;;;18.11;100.00;100719.63;5269943;28;20141;-74
2024/04/05 11:22:06;;;;;;;3.50;1.40;;;;;;;18.01;100.00;100730.97;5271899;28;20019;-75
2024/04/05 11:24:37;;;;;;;4.38;1.15;;;;;;;17.94;100.00;100727.47;5270481;28;20028;-75
2024/04/05 11:27:07;;;;;;;4.53;1.45;;;;;;;17.60;100.00;100732.19;5273382;28;20542;-76
2024/04/05 11:29:39;;;;;;;6.43;1.30;;;;;;;17.72;100.00;100739.66;5267002;28;20082;-75